sensor_id;sensor_type;location;lat;lon;timestamp;pressure;altitude;pressure_sealevel;temperature;humidity
9672;BME280;4874;43.568;27.824;2023-06-04T00:00:20;99197.88;;;18.33;100.00
9672;BME280;4874;43.568;27.824;2023-06-04T00:02:47;99193.44;;;18.11;100.00
9672;BME280;4874;43.568;27.824;2023-06-04T00:05:13;99183.53;;;17.97;100.00
9672;BME280;4874;43.568;27.824;2023-06-04T00:07:40;99196.31;;;17.81;100.00
9672;BME280;4874;43.568;27.824;2023-06-04T00:10:07;99194.47;;;17.67;100.00
9672;BME280;4874;43.568;27.824;2023-06-04T00:12:34;99198.63;;;17.84;100.00
9672;BME280;4874;43.568;27.824;2023-06-04T00:15:02;99202.81;;;18.01;100.00
9672;BME280;4874;43.568;27.824;2023-06-04T00:17:29;99210.19;;;17.55;100.00
9672;BME280;4874;43.568;27.824;2023-06-04T00:19:55;99193.81;;;17.42;100.00
9672;BME280;4874;43.568;27.824;2023-06-04T00:22:24;99209.34;;;17.69;100.00
9672;BME280;4874;43.568;27.824;2023-06-04T00:24:50;99212.69;;;17.71;100.00
9672;BME280;4874;43.568;27.824;2023-06-04T00:27:17;99210.53;;;17.52;100.00
9672;BME280;4874;43.568;27.824;2023-06-04T00:29:44;99212.78;;;17.78;100.00
9672;BME280;4874;43.568;27.824;2023-06-04T00:32:11;99204.56;;;17.94;100.00
9672;BME280;4874;43.568;27.824;2023-06-04T00:34:37;99209.72;;;17.66;100.00
9672;BME280;4874;43.568;27.824;2023-06-04T00:37:04;99163.72;;;17.32;100.00
9672;BME280;4874;43.568;27.824;2023-06-04T00:39:32;99216.19;;;17.57;100.00
9672;BME280;4874;43.568;27.824;2023-06-04T00:41:59;99166.31;;;17.40;100.00
9672;BME280;4874;43.568;27.824;2023-06-04T00:44:25;99215.28;;;17.65;100.00
9672;BME280;4874;43.568;27.824;2023-06-04T00:46:53;99193.66;;;17.81;100.00
9672;BME280;4874;43.568;27.824;2023-06-04T00:49:22;99225.97;;;17.87;100.00
9672;BME280;4874;43.568;27.824;2023-06-04T00:51:49;99215.75;;;17.45;100.00
9672;BME280;4874;43.568;27.824;2023-06-04T00:54:17;99217.97;;;17.50;100.00
9672;BME280;4874;43.568;27.824;2023-06-04T00:56:44;99214.25;;;17.28;100.00
9672;BME280;4874;43.568;27.824;2023-06-04T00:59:11;99217.97;;;17.50;100.00
9672;BME280;4874;43.568;27.824;2023-06-04T01:01:47;99209.38;;;17.98;100.00
9672;BME280;4874;43.568;27.824;2023-06-04T01:07:03;99222.22;;;17.59;100.00
9672;BME280;4874;43.568;27.824;2023-06-04T01:09:31;99217.59;;;17.53;100.00
9672;BME280;4874;43.568;27.824;2023-06-04T01:11:58;99216.28;;;17.49;100.00
9672;BME280;4874;43.568;27.824;2023-06-04T01:14:25;99222.03;;;17.60;100.00
9672;BME280;4874;43.568;27.824;2023-06-04T01:17:13;99222.66;;;17.48;100.00
9672;BME280;4874;43.568;27.824;2023-06-04T01:20:22;99212.94;;;17.47;100.00
9672;BME280;4874;43.568;27.824;2023-06-04T01:25:24;99227.34;;;17.83;100.00
9672;BME280;4874;43.568;27.824;2023-06-04T01:27:55;99204.06;;;17.24;100.00
9672;BME280;4874;43.568;27.824;2023-06-04T01:30:25;99222.09;;;17.52;100.00
9672;BME280;4874;43.568;27.824;2023-06-04T01:32:54;99226.34;;;17.24;100.00
9672;BME280;4874;43.568;27.824;2023-06-04T01:35:21;99178.38;;;16.84;100.00
9672;BME280;4874;43.568;27.824;2023-06-04T01:37:49;99237.97;;;16.94;100.00
9672;BME280;4874;43.568;27.824;2023-06-04T01:40:16;99231.09;;;17.37;100.00
9672;BME280;4874;43.568;27.824;2023-06-04T01:42:43;99225.25;;;17.33;100.00
9672;BME280;4874;43.568;27.824;2023-06-04T01:45:10;99241.38;;;17.71;100.00
9672;BME280;4874;43.568;27.824;2023-06-04T01:47:37;99235.44;;;17.46;100.00
9672;BME280;4874;43.568;27.824;2023-06-04T01:50:05;99233.03;;;17.66;100.00
9672;BME280;4874;43.568;27.824;2023-06-04T01:52:41;99234.72;;;17.29;100.00
9672;BME280;4874;43.568;27.824;2023-06-04T01:55:10;99239.91;;;17.45;100.00
9672;BME280;4874;43.568;27.824;2023-06-04T01:57:42;99246.22;;;16.93;100.00
9672;BME280;4874;43.568;27.824;2023-06-04T02:00:11;99233.50;;;17.09;100.00
9672;BME280;4874;43.568;27.824;2023-06-04T02:02:39;99248.94;;;17.30;100.00
9672;BME280;4874;43.568;27.824;2023-06-04T02:05:09;99250.84;;;16.99;100.00
9672;BME280;4874;43.568;27.824;2023-06-04T02:07:40;99234.31;;;16.65;100.00
9672;BME280;4874;43.568;27.824;2023-06-04T02:10:09;99259.50;;;16.86;100.00
9672;BME280;4874;43.568;27.824;2023-06-04T02:12:41;99254.53;;;16.75;100.00
9672;BME280;4874;43.568;27.824;2023-06-04T02:15:10;99264.69;;;16.88;100.00
9672;BME280;4874;43.568;27.824;2023-06-04T02:17:37;99265.50;;;17.11;100.00
9672;BME280;4874;43.568;27.824;2023-06-04T02:20:07;99263.13;;;17.16;100.00
9672;BME280;4874;43.568;27.824;2023-06-04T02:22:37;99269.22;;;17.10;100.00
9672;BME280;4874;43.568;27.824;2023-06-04T02:25:04;99188.34;;;16.76;100.00
9672;BME280;4874;43.568;27.824;2023-06-04T02:27:31;99275.47;;;17.25;100.00
9672;BME280;4874;43.568;27.824;2023-06-04T02:29:58;99269.22;;;17.92;100.00
9672;BME280;4874;43.568;27.824;2023-06-04T02:32:25;99279.22;;;17.98;100.00
9672;BME280;4874;43.568;27.824;2023-06-04T02:34:52;99282.22;;;17.21;100.00
9672;BME280;4874;43.568;27.824;2023-06-04T02:37:18;99272.31;;;17.44;100.00
9672;BME280;4874;43.568;27.824;2023-06-04T02:39:45;99280.34;;;16.99;100.00
9672;BME280;4874;43.568;27.824;2023-06-04T02:42:12;99273.81;;;17.01;100.00
9672;BME280;4874;43.568;27.824;2023-06-04T02:44:39;99278.22;;;17.39;100.00
9672;BME280;4874;43.568;27.824;2023-06-04T02:47:06;99272.31;;;17.21;100.00
9672;BME280;4874;43.568;27.824;2023-06-04T02:49:32;99288.09;;;16.63;100.00
9672;BME280;4874;43.568;27.824;2023-06-04T02:51:59;99281.38;;;16.98;100.00
9672;BME280;4874;43.568;27.824;2023-06-04T02:54:26;99281.06;;;16.93;100.00
9672;BME280;4874;43.568;27.824;2023-06-04T02:56:53;99279.06;;;16.95;100.00
9672;BME280;4874;43.568;27.824;2023-06-04T02:59:19;99260.94;;;16.66;100.00
9672;BME280;4874;43.568;27.824;2023-06-04T03:01:47;99296.84;;;16.88;100.00
9672;BME280;4874;43.568;27.824;2023-06-04T03:04:14;99296.94;;;16.72;100.00
9672;BME280;4874;43.568;27.824;2023-06-04T03:06:42;99290.47;;;16.89;100.00
9672;BME280;4874;43.568;27.824;2023-06-04T03:09:13;99304.66;;;16.97;100.00
9672;BME280;4874;43.568;27.824;2023-06-04T03:11:40;99296.72;;;17.12;100.00
9672;BME280;4874;43.568;27.824;2023-06-04T03:14:07;99302.66;;;16.69;100.00
9672;BME280;4874;43.568;27.824;2023-06-04T03:16:33;99296.91;;;16.80;100.00
9672;BME280;4874;43.568;27.824;2023-06-04T03:19:00;99306.44;;;16.82;100.00
9672;BME280;4874;43.568;27.824;2023-06-04T03:21:27;99305.63;;;16.74;100.00
9672;BME280;4874;43.568;27.824;2023-06-04T03:23:56;99315.31;;;16.83;100.00
9672;BME280;4874;43.568;27.824;2023-06-04T03:26:23;99315.00;;;16.78;100.00
9672;BME280;4874;43.568;27.824;2023-06-04T03:28:49;99274.44;;;16.34;100.00
9672;BME280;4874;43.568;27.824;2023-06-04T03:31:16;99312.50;;;16.76;100.00
9672;BME280;4874;43.568;27.824;2023-06-04T03:33:43;99318.69;;;16.77;100.00
9672;BME280;4874;43.568;27.824;2023-06-04T03:36:10;99297.03;;;16.39;100.00
9672;BME280;4874;43.568;27.824;2023-06-04T03:38:37;99312.94;;;16.57;100.00
9672;BME280;4874;43.568;27.824;2023-06-04T03:41:03;99303.06;;;16.41;100.00
9672;BME280;4874;43.568;27.824;2023-06-04T03:43:30;99312.66;;;16.75;100.00
9672;BME280;4874;43.568;27.824;2023-06-04T03:45:57;99322.44;;;16.60;100.00
9672;BME280;4874;43.568;27.824;2023-06-04T03:48:24;99320.13;;;16.57;100.00
9672;BME280;4874;43.568;27.824;2023-06-04T03:50:50;99332.84;;;16.55;100.00
9672;BME280;4874;43.568;27.824;2023-06-04T03:53:17;99329.63;;;16.67;100.00
9672;BME280;4874;43.568;27.824;2023-06-04T03:55:44;99331.47;;;16.67;100.00
9672;BME280;4874;43.568;27.824;2023-06-04T03:58:10;99333.88;;;16.54;100.00
9672;BME280;4874;43.568;27.824;2023-06-04T04:00:38;99329.28;;;16.70;100.00
9672;BME280;4874;43.568;27.824;2023-06-04T04:03:05;99337.03;;;16.96;100.00
9672;BME280;4874;43.568;27.824;2023-06-04T04:05:34;99341.78;;;16.86;100.00
9672;BME280;4874;43.568;27.824;2023-06-04T04:08:03;99308.00;;;16.69;100.00
9672;BME280;4874;43.568;27.824;2023-06-04T04:10:29;99342.75;;;17.23;100.00
9672;BME280;4874;43.568;27.824;2023-06-04T04:12:56;99339.31;;;16.76;100.00
9672;BME280;4874;43.568;27.824;2023-06-04T04:15:25;99316.63;;;16.87;100.00
9672;BME280;4874;43.568;27.824;2023-06-04T04:17:51;99315.28;;;16.91;100.00
9672;BME280;4874;43.568;27.824;2023-06-04T04:20:19;99340.56;;;16.96;100.00
9672;BME280;4874;43.568;27.824;2023-06-04T04:22:45;99343.75;;;16.92;100.00
9672;BME280;4874;43.568;27.824;2023-06-04T04:25:14;99342.31;;;17.12;100.00
9672;BME280;4874;43.568;27.824;2023-06-04T04:27:41;99344.47;;;17.16;100.00
9672;BME280;4874;43.568;27.824;2023-06-04T04:30:08;99349.47;;;16.89;100.00
9672;BME280;4874;43.568;27.824;2023-06-04T04:32:35;99351.66;;;17.16;100.00
9672;BME280;4874;43.568;27.824;2023-06-04T04:35:05;99351.53;;;17.09;100.00
9672;BME280;4874;43.568;27.824;2023-06-04T04:37:34;99351.66;;;17.16;100.00
9672;BME280;4874;43.568;27.824;2023-06-04T04:40:06;99252.63;;;16.53;100.00
9672;BME280;4874;43.568;27.824;2023-06-04T04:42:36;99352.16;;;17.19;100.00
9672;BME280;4874;43.568;27.824;2023-06-04T04:45:03;99343.19;;;17.04;100.00
9672;BME280;4874;43.568;27.824;2023-06-04T04:47:30;99324.63;;;17.25;100.00
9672;BME280;4874;43.568;27.824;2023-06-04T04:49:57;99362.75;;;17.13;100.00
9672;BME280;4874;43.568;27.824;2023-06-04T04:52:24;99366.81;;;17.09;100.00
9672;BME280;4874;43.568;27.824;2023-06-04T04:54:51;99362.94;;;17.11;100.00
9672;BME280;4874;43.568;27.824;2023-06-04T04:57:22;99354.31;;;17.54;100.00
9672;BME280;4874;43.568;27.824;2023-06-04T04:59:49;99314.84;;;17.32;100.00
9672;BME280;4874;43.568;27.824;2023-06-04T05:02:16;99361.44;;;17.62;100.00
9672;BME280;4874;43.568;27.824;2023-06-04T05:04:43;99360.03;;;17.43;100.00
9672;BME280;4874;43.568;27.824;2023-06-04T05:07:09;99364.56;;;17.51;100.00
9672;BME280;4874;43.568;27.824;2023-06-04T05:09:36;99352.09;;;17.58;100.00
9672;BME280;4874;43.568;27.824;2023-06-04T05:12:03;99362.56;;;17.53;100.00
9672;BME280;4874;43.568;27.824;2023-06-04T05:14:30;99369.69;;;17.30;100.00
9672;BME280;4874;43.568;27.824;2023-06-04T05:16:56;99358.28;;;17.81;100.00
9672;BME280;4874;43.568;27.824;2023-06-04T05:19:23;99365.34;;;17.82;100.00
9672;BME280;4874;43.568;27.824;2023-06-04T05:21:51;99365.22;;;17.53;100.00
9672;BME280;4874;43.568;27.824;2023-06-04T05:24:17;99362.47;;;17.61;100.00
9672;BME280;4874;43.568;27.824;2023-06-04T05:26:44;99368.91;;;17.75;100.00
9672;BME280;4874;43.568;27.824;2023-06-04T05:29:11;99373.81;;;17.48;100.00
9672;BME280;4874;43.568;27.824;2023-06-04T05:31:38;99366.41;;;17.73;100.00
9672;BME280;4874;43.568;27.824;2023-06-04T05:34:06;99367.25;;;18.11;100.00
9672;BME280;4874;43.568;27.824;2023-06-04T05:36:33;99372.13;;;17.93;100.00
9672;BME280;4874;43.568;27.824;2023-06-04T05:39:00;99380.38;;;18.28;100.00
9672;BME280;4874;43.568;27.824;2023-06-04T05:41:27;99383.66;;;18.53;100.00
9672;BME280;4874;43.568;27.824;2023-06-04T05:43:54;99350.00;;;18.42;100.00
9672;BME280;4874;43.568;27.824;2023-06-04T05:46:21;99355.75;;;18.54;100.00
9672;BME280;4874;43.568;27.824;2023-06-04T05:48:48;99379.41;;;18.73;100.00
9672;BME280;4874;43.568;27.824;2023-06-04T05:51:15;99346.94;;;18.45;100.00
9672;BME280;4874;43.568;27.824;2023-06-04T05:53:42;99369.75;;;18.93;100.00
9672;BME280;4874;43.568;27.824;2023-06-04T05:56:09;99361.31;;;18.82;100.00
9672;BME280;4874;43.568;27.824;2023-06-04T05:58:35;99350.09;;;18.63;100.00
9672;BME280;4874;43.568;27.824;2023-06-04T06:01:03;99375.91;;;19.23;100.00
9672;BME280;4874;43.568;27.824;2023-06-04T06:03:30;99394.56;;;19.10;100.00
9672;BME280;4874;43.568;27.824;2023-06-04T06:05:57;99385.19;;;19.20;100.00
9672;BME280;4874;43.568;27.824;2023-06-04T06:08:26;99386.03;;;19.56;100.00
9672;BME280;4874;43.568;27.824;2023-06-04T06:10:53;99389.06;;;19.47;100.00
9672;BME280;4874;43.568;27.824;2023-06-04T06:13:20;99379.53;;;19.15;100.00
9672;BME280;4874;43.568;27.824;2023-06-04T06:15:46;99377.69;;;19.16;100.00
9672;BME280;4874;43.568;27.824;2023-06-04T06:18:17;99389.00;;;19.82;100.00
9672;BME280;4874;43.568;27.824;2023-06-04T06:20:44;99384.72;;;19.67;100.00
9672;BME280;4874;43.568;27.824;2023-06-04T06:23:11;99385.09;;;19.85;100.00
9672;BME280;4874;43.568;27.824;2023-06-04T06:25:37;99398.06;;;19.54;100.00
9672;BME280;4874;43.568;27.824;2023-06-04T06:28:06;99368.34;;;19.89;100.00
9672;BME280;4874;43.568;27.824;2023-06-04T06:30:33;99396.66;;;20.00;100.00
9672;BME280;4874;43.568;27.824;2023-06-04T06:33:00;99397.59;;;20.14;100.00
9672;BME280;4874;43.568;27.824;2023-06-04T06:35:27;99394.72;;;19.94;100.00
9672;BME280;4874;43.568;27.824;2023-06-04T06:37:53;99319.34;;;19.37;100.00
9672;BME280;4874;43.568;27.824;2023-06-04T06:40:20;99398.59;;;20.13;100.00
9672;BME280;4874;43.568;27.824;2023-06-04T06:42:50;99375.41;;;19.69;100.00
9672;BME280;4874;43.568;27.824;2023-06-04T06:45:20;99405.63;;;20.07;100.00
9672;BME280;4874;43.568;27.824;2023-06-04T06:47:47;99410.44;;;20.33;100.00
9672;BME280;4874;43.568;27.824;2023-06-04T06:50:13;99404.66;;;20.15;100.00
9672;BME280;4874;43.568;27.824;2023-06-04T06:52:40;99407.00;;;20.45;100.00
9672;BME280;4874;43.568;27.824;2023-06-04T06:55:07;99403.59;;;20.64;100.00
9672;BME280;4874;43.568;27.824;2023-06-04T06:57:34;99416.69;;;20.67;100.00
9672;BME280;4874;43.568;27.824;2023-06-04T07:00:01;99405.56;;;20.49;100.00
9672;BME280;4874;43.568;27.824;2023-06-04T07:02:27;99408.25;;;20.77;100.00
9672;BME280;4874;43.568;27.824;2023-06-04T07:04:55;99407.44;;;20.83;100.00
9672;BME280;4874;43.568;27.824;2023-06-04T07:07:22;99421.25;;;20.94;100.00
9672;BME280;4874;43.568;27.824;2023-06-04T07:09:49;99414.25;;;20.17;100.00
9672;BME280;4874;43.568;27.824;2023-06-04T07:12:16;99413.84;;;20.75;100.00
9672;BME280;4874;43.568;27.824;2023-06-04T07:14:43;99421.06;;;20.68;100.00
9672;BME280;4874;43.568;27.824;2023-06-04T07:17:10;99420.50;;;20.79;100.00
9672;BME280;4874;43.568;27.824;2023-06-04T07:19:37;99430.97;;;20.61;100.00
9672;BME280;4874;43.568;27.824;2023-06-04T07:22:03;99423.00;;;20.81;100.00
9672;BME280;4874;43.568;27.824;2023-06-04T07:24:30;99393.50;;;21.14;100.00
9672;BME280;4874;43.568;27.824;2023-06-04T07:26:57;99419.53;;;21.28;100.00
9672;BME280;4874;43.568;27.824;2023-06-04T07:29:24;99422.88;;;20.95;100.00
9672;BME280;4874;43.568;27.824;2023-06-04T07:31:51;99416.44;;;20.62;100.00
9672;BME280;4874;43.568;27.824;2023-06-04T07:34:17;99430.13;;;20.88;100.00
9672;BME280;4874;43.568;27.824;2023-06-04T07:36:44;99430.13;;;20.61;100.00
9672;BME280;4874;43.568;27.824;2023-06-04T07:39:11;99432.56;;;20.83;100.00
9672;BME280;4874;43.568;27.824;2023-06-04T07:41:38;99427.34;;;20.75;100.00
9672;BME280;4874;43.568;27.824;2023-06-04T07:44:04;99408.28;;;20.49;100.00
9672;BME280;4874;43.568;27.824;2023-06-04T07:46:31;99424.88;;;20.80;100.00
9672;BME280;4874;43.568;27.824;2023-06-04T07:48:58;99438.03;;;20.96;100.00
9672;BME280;4874;43.568;27.824;2023-06-04T07:51:25;99432.03;;;20.94;100.00
9672;BME280;4874;43.568;27.824;2023-06-04T07:53:52;99401.16;;;20.76;100.00
9672;BME280;4874;43.568;27.824;2023-06-04T07:56:19;99428.28;;;20.95;100.00
9672;BME280;4874;43.568;27.824;2023-06-04T07:58:46;99411.66;;;20.92;100.00
9672;BME280;4874;43.568;27.824;2023-06-04T08:01:13;99435.94;;;21.26;100.00
9672;BME280;4874;43.568;27.824;2023-06-04T08:03:40;99428.41;;;21.69;100.00
9672;BME280;4874;43.568;27.824;2023-06-04T08:06:09;99434.22;;;21.12;100.00
9672;BME280;4874;43.568;27.824;2023-06-04T08:08:36;99439.84;;;21.17;100.00
9672;BME280;4874;43.568;27.824;2023-06-04T08:11:03;99438.28;;;21.36;100.00
9672;BME280;4874;43.568;27.824;2023-06-04T08:13:30;99434.59;;;21.56;100.00
9672;BME280;4874;43.568;27.824;2023-06-04T08:15:57;99422.69;;;21.31;100.00
9672;BME280;4874;43.568;27.824;2023-06-04T08:18:24;99448.97;;;21.10;100.00
9672;BME280;4874;43.568;27.824;2023-06-04T08:20:50;99437.88;;;21.99;100.00
9672;BME280;4874;43.568;27.824;2023-06-04T08:23:17;99439.53;;;21.87;100.00
9672;BME280;4874;43.568;27.824;2023-06-04T08:25:44;99445.81;;;22.33;100.00
9672;BME280;4874;43.568;27.824;2023-06-04T08:28:13;99454.97;;;22.32;100.00
9672;BME280;4874;43.568;27.824;2023-06-04T08:30:41;99447.06;;;22.44;100.00
9672;BME280;4874;43.568;27.824;2023-06-04T08:33:08;99468.47;;;22.39;100.00
9672;BME280;4874;43.568;27.824;2023-06-04T08:35:37;99452.22;;;22.06;100.00
9672;BME280;4874;43.568;27.824;2023-06-04T08:38:04;99458.03;;;22.03;100.00
9672;BME280;4874;43.568;27.824;2023-06-04T08:40:31;99455.75;;;21.93;100.00
9672;BME280;4874;43.568;27.824;2023-06-04T08:42:58;99407.59;;;21.56;100.00
9672;BME280;4874;43.568;27.824;2023-06-04T08:45:26;99443.31;;;22.12;100.00
9672;BME280;4874;43.568;27.824;2023-06-04T08:47:54;99459.78;;;22.56;100.00
9672;BME280;4874;43.568;27.824;2023-06-04T08:50:25;99463.91;;;22.20;100.00
9672;BME280;4874;43.568;27.824;2023-06-04T08:52:53;99451.66;;;22.63;100.00
9672;BME280;4874;43.568;27.824;2023-06-04T08:55:23;99452.50;;;22.44;100.00
9672;BME280;4874;43.568;27.824;2023-06-04T08:57:50;99452.88;;;22.21;100.00
9672;BME280;4874;43.568;27.824;2023-06-04T09:00:20;99466.63;;;22.26;100.00
9672;BME280;4874;43.568;27.824;2023-06-04T09:02:47;99461.63;;;22.36;100.00
9672;BME280;4874;43.568;27.824;2023-06-04T09:05:20;99474.53;;;22.28;100.00
9672;BME280;4874;43.568;27.824;2023-06-04T09:07:48;99472.63;;;22.08;100.00
9672;BME280;4874;43.568;27.824;2023-06-04T09:10:22;99440.16;;;22.22;100.00
9672;BME280;4874;43.568;27.824;2023-06-04T09:12:50;99458.72;;;22.31;100.00
9672;BME280;4874;43.568;27.824;2023-06-04T09:15:17;99455.75;;;21.87;100.00
9672;BME280;4874;43.568;27.824;2023-06-04T09:17:44;99462.88;;;22.14;100.00
9672;BME280;4874;43.568;27.824;2023-06-04T09:20:21;99462.88;;;22.34;100.00
9672;BME280;4874;43.568;27.824;2023-06-04T09:22:48;99462.22;;;22.12;100.00
9672;BME280;4874;43.568;27.824;2023-06-04T09:25:23;99463.28;;;22.37;100.00
9672;BME280;4874;43.568;27.824;2023-06-04T09:27:52;99473.50;;;22.48;100.00
9672;BME280;4874;43.568;27.824;2023-06-04T09:30:22;99471.22;;;22.45;100.00
9672;BME280;4874;43.568;27.824;2023-06-04T09:32:49;99467.69;;;22.38;100.00
9672;BME280;4874;43.568;27.824;2023-06-04T09:35:19;99445.59;;;22.35;100.00
9672;BME280;4874;43.568;27.824;2023-06-04T09:37:53;99463.28;;;22.37;99.17
9672;BME280;4874;43.568;27.824;2023-06-04T09:40:20;99442.06;;;22.47;100.00
9672;BME280;4874;43.568;27.824;2023-06-04T09:42:49;99467.25;;;22.28;97.80
9672;BME280;4874;43.568;27.824;2023-06-04T09:45:28;99460.78;;;22.29;96.30
9672;BME280;4874;43.568;27.824;2023-06-04T09:47:59;99469.31;;;22.39;93.30
9672;BME280;4874;43.568;27.824;2023-06-04T09:50:30;99474.75;;;22.78;94.88
9672;BME280;4874;43.568;27.824;2023-06-04T09:52:58;99440.59;;;22.51;96.85
9672;BME280;4874;43.568;27.824;2023-06-04T09:55:25;99472.22;;;23.09;97.15
9672;BME280;4874;43.568;27.824;2023-06-04T09:57:53;99429.38;;;22.67;100.00
9672;BME280;4874;43.568;27.824;2023-06-04T10:00:21;99469.78;;;22.75;97.06
9672;BME280;4874;43.568;27.824;2023-06-04T10:02:51;99443.09;;;22.53;97.49
9672;BME280;4874;43.568;27.824;2023-06-04T10:05:22;99476.59;;;22.97;89.20
9672;BME280;4874;43.568;27.824;2023-06-04T10:07:51;99449.13;;;22.94;89.48
9672;BME280;4874;43.568;27.824;2023-06-04T10:10:25;99437.06;;;22.77;92.38
9672;BME280;4874;43.568;27.824;2023-06-04T10:13:00;99440.41;;;22.72;87.14
9672;BME280;4874;43.568;27.824;2023-06-04T10:15:28;99453.72;;;22.87;87.00
9672;BME280;4874;43.568;27.824;2023-06-04T10:17:56;99477.22;;;23.06;87.92
9672;BME280;4874;43.568;27.824;2023-06-04T10:20:23;99473.47;;;23.00;90.82
9672;BME280;4874;43.568;27.824;2023-06-04T10:22:50;99432.88;;;22.87;89.63
9672;BME280;4874;43.568;27.824;2023-06-04T10:25:18;99471.81;;;22.99;97.04
9672;BME280;4874;43.568;27.824;2023-06-04T10:27:45;99473.47;;;23.00;95.52
9672;BME280;4874;43.568;27.824;2023-06-04T10:30:13;99467.63;;;23.10;88.25
9672;BME280;4874;43.568;27.824;2023-06-04T10:32:40;99463.22;;;23.28;94.56
9672;BME280;4874;43.568;27.824;2023-06-04T10:35:07;99456.22;;;22.95;90.27
9672;BME280;4874;43.568;27.824;2023-06-04T10:37:34;99463.06;;;22.97;92.22
9672;BME280;4874;43.568;27.824;2023-06-04T10:40:02;99467.72;;;22.64;94.57
9672;BME280;4874;43.568;27.824;2023-06-04T10:42:42;99472.59;;;23.19;90.64
9672;BME280;4874;43.568;27.824;2023-06-04T10:45:09;99471.59;;;22.42;92.89
9672;BME280;4874;43.568;27.824;2023-06-04T10:47:36;99476.31;;;23.45;89.67
9672;BME280;4874;43.568;27.824;2023-06-04T10:50:11;99467.66;;;23.03;90.96
9672;BME280;4874;43.568;27.824;2023-06-04T10:52:51;99473.19;;;23.35;89.97
9672;BME280;4874;43.568;27.824;2023-06-04T10:55:18;99470.94;;;23.18;90.79
9672;BME280;4874;43.568;27.824;2023-06-04T10:58:00;99457.63;;;23.17;92.84
9672;BME280;4874;43.568;27.824;2023-06-04T11:00:46;99464.09;;;23.09;92.57
9672;BME280;4874;43.568;27.824;2023-06-04T11:03:16;99466.63;;;22.91;91.45
9672;BME280;4874;43.568;27.824;2023-06-04T11:05:45;99471.66;;;22.81;89.14
9672;BME280;4874;43.568;27.824;2023-06-04T11:08:13;99456.38;;;23.06;89.52
9672;BME280;4874;43.568;27.824;2023-06-04T11:10:44;99468.06;;;23.07;88.53
9672;BME280;4874;43.568;27.824;2023-06-04T11:13:11;99452.06;;;22.79;94.04
9672;BME280;4874;43.568;27.824;2023-06-04T11:15:46;99461.97;;;23.18;92.95
9672;BME280;4874;43.568;27.824;2023-06-04T11:18:20;99466.84;;;22.90;89.56
9672;BME280;4874;43.568;27.824;2023-06-04T11:20:49;99463.22;;;23.22;93.28
9672;BME280;4874;43.568;27.824;2023-06-04T11:23:16;99462.75;;;23.38;93.88
9672;BME280;4874;43.568;27.824;2023-06-04T11:25:44;99464.41;;;24.27;90.31
9672;BME280;4874;43.568;27.824;2023-06-04T11:28:16;99470.66;;;23.53;90.92
9672;BME280;4874;43.568;27.824;2023-06-04T11:30:56;99466.88;;;23.60;83.70
9672;BME280;4874;43.568;27.824;2023-06-04T11:33:23;99470.69;;;23.46;86.79
9672;BME280;4874;43.568;27.824;2023-06-04T11:35:50;99466.94;;;23.85;85.68
9672;BME280;4874;43.568;27.824;2023-06-04T11:38:17;99470.09;;;23.82;87.19
9672;BME280;4874;43.568;27.824;2023-06-04T11:40:43;99464.66;;;23.24;84.27
9672;BME280;4874;43.568;27.824;2023-06-04T11:43:11;99455.09;;;23.28;84.64
9672;BME280;4874;43.568;27.824;2023-06-04T11:45:39;99445.31;;;23.27;84.07
9672;BME280;4874;43.568;27.824;2023-06-04T11:48:10;99418.50;;;22.87;84.86
9672;BME280;4874;43.568;27.824;2023-06-04T11:50:37;99469.22;;;23.44;83.55
9672;BME280;4874;43.568;27.824;2023-06-04T11:53:04;99469.41;;;23.49;84.60
9672;BME280;4874;43.568;27.824;2023-06-04T11:55:31;99471.09;;;23.50;84.55
9672;BME280;4874;43.568;27.824;2023-06-04T11:57:58;99475.91;;;23.41;81.70
9672;BME280;4874;43.568;27.824;2023-06-04T12:00:25;99474.50;;;23.19;81.17
9672;BME280;4874;43.568;27.824;2023-06-04T12:02:54;99473.66;;;23.05;79.59
9672;BME280;4874;43.568;27.824;2023-06-04T12:05:23;99473.28;;;23.02;80.09
9672;BME280;4874;43.568;27.824;2023-06-04T12:07:51;99471.63;;;22.94;79.70
9672;BME280;4874;43.568;27.824;2023-06-04T12:10:21;99471.63;;;22.88;81.49
9672;BME280;4874;43.568;27.824;2023-06-04T12:12:53;99476.81;;;22.96;82.06
9672;BME280;4874;43.568;27.824;2023-06-04T12:15:22;99471.81;;;22.34;80.48
9672;BME280;4874;43.568;27.824;2023-06-04T12:17:53;99477.69;;;22.64;78.32
9672;BME280;4874;43.568;27.824;2023-06-04T12:20:35;99470.63;;;22.69;78.92
9672;BME280;4874;43.568;27.824;2023-06-04T12:23:03;99446.88;;;22.45;81.12
9672;BME280;4874;43.568;27.824;2023-06-04T12:25:33;99474.75;;;22.39;79.26
9672;BME280;4874;43.568;27.824;2023-06-04T12:28:00;99471.63;;;22.49;78.63
9672;BME280;4874;43.568;27.824;2023-06-04T12:30:39;99477.44;;;22.46;77.73
9672;BME280;4874;43.568;27.824;2023-06-04T12:33:06;99470.13;;;22.27;77.61
9672;BME280;4874;43.568;27.824;2023-06-04T12:35:34;99470.38;;;22.51;77.54
9672;BME280;4874;43.568;27.824;2023-06-04T12:38:03;99466.22;;;22.75;77.35
9672;BME280;4874;43.568;27.824;2023-06-04T12:40:30;99462.50;;;22.69;76.48
9672;BME280;4874;43.568;27.824;2023-06-04T12:42:57;99468.31;;;22.79;78.56
9672;BME280;4874;43.568;27.824;2023-06-04T12:45:24;99444.75;;;22.41;75.99
9672;BME280;4874;43.568;27.824;2023-06-04T12:47:51;99474.13;;;22.76;76.06
9672;BME280;4874;43.568;27.824;2023-06-04T12:50:18;99458.09;;;22.68;73.92
9672;BME280;4874;43.568;27.824;2023-06-04T12:52:47;99481.22;;;22.58;71.05
9672;BME280;4874;43.568;27.824;2023-06-04T12:55:14;99478.28;;;22.85;72.03
9672;BME280;4874;43.568;27.824;2023-06-04T12:57:41;99471.81;;;22.34;71.87
9672;BME280;4874;43.568;27.824;2023-06-04T13:00:10;99484.50;;;23.05;72.54
9672;BME280;4874;43.568;27.824;2023-06-04T13:02:37;99477.06;;;22.81;70.83
9672;BME280;4874;43.568;27.824;2023-06-04T13:05:04;99473.09;;;22.77;71.60
9672;BME280;4874;43.568;27.824;2023-06-04T13:07:32;99478.22;;;23.24;71.38
9672;BME280;4874;43.568;27.824;2023-06-04T13:09:58;99471.13;;;23.23;70.16
9672;BME280;4874;43.568;27.824;2023-06-04T13:12:25;99394.81;;;22.43;69.63